createdAt,value
2023-04-04T00:01:37.992Z,2.24
2023-04-04T00:04:23.112Z,2.21
2023-04-04T00:06:55.995Z,2.16
2023-04-04T00:09:44.931Z,2.17
2023-04-04T00:12:17.898Z,2.21
2023-04-04T00:14:48.409Z,2.22
2023-04-04T00:20:15.159Z,2.17
2023-04-04T00:22:47.640Z,2.14
2023-04-04T00:25:17.244Z,2.16
2023-04-04T00:27:46.209Z,2.18
2023-04-04T00:30:20.852Z,2.19
2023-04-04T00:32:49.506Z,2.17
2023-04-04T00:35:17.845Z,2.18
2023-04-04T00:37:50.139Z,2.21
2023-04-04T00:40:18.619Z,2.24
2023-04-04T00:42:48.647Z,2.25
2023-04-04T00:45:18.993Z,2.23
2023-04-04T00:47:47.611Z,2.25
2023-04-04T00:50:23.709Z,2.32
2023-04-04T00:52:52.261Z,2.36
2023-04-04T00:55:26.072Z,2.37
2023-04-04T00:57:55.265Z,2.36
2023-04-04T01:00:32.371Z,2.36
2023-04-04T01:06:58.577Z,2.44
2023-04-04T01:09:26.967Z,2.45
2023-04-04T01:11:55.220Z,2.43
2023-04-04T01:14:22.886Z,2.44
2023-04-04T01:16:54.915Z,2.44
2023-04-04T01:19:31.572Z,2.40
2023-04-04T01:22:02.832Z,2.34
2023-04-04T01:24:34.963Z,2.31
2023-04-04T01:27:08.545Z,2.31
2023-04-04T01:29:44.375Z,2.35
2023-04-04T01:32:31.329Z,2.35
2023-04-04T01:35:12.199Z,2.33
2023-04-04T01:37:50.530Z,2.30
2023-04-04T01:40:21.315Z,2.31
2023-04-04T01:42:52.651Z,2.35
2023-04-04T01:45:22.526Z,2.34
2023-04-04T01:47:49.636Z,2.31
2023-04-04T01:50:22.485Z,2.29
2023-04-04T01:52:51.424Z,2.30
2023-04-04T01:55:19.775Z,2.30
2023-04-04T01:57:49.218Z,2.31
2023-04-04T02:00:20.690Z,2.29
2023-04-04T02:02:50.014Z,2.23
2023-04-04T02:05:17.452Z,2.21
2023-04-04T02:07:50.921Z,2.25
2023-04-04T02:10:31.068Z,2.28
2023-04-04T02:13:00.715Z,2.26
2023-04-04T02:15:27.876Z,2.23
2023-04-04T02:17:56.491Z,2.25
2023-04-04T02:20:23.588Z,2.28
2023-04-04T02:22:58.815Z,2.27
2023-04-04T02:25:26.003Z,2.25
2023-04-04T02:27:58.203Z,2.21
2023-04-04T02:30:25.208Z,2.18
2023-04-04T02:32:54.150Z,2.19
2023-04-04T02:35:21.418Z,2.18
2023-04-04T02:37:48.330Z,2.16
2023-04-04T02:40:29.712Z,2.13
2023-04-04T02:43:04.423Z,2.11
2023-04-04T02:45:33.328Z,2.11
2023-04-04T02:48:09.313Z,2.15
2023-04-04T02:50:44.541Z,2.20
2023-04-04T02:53:12.696Z,2.20
2023-04-04T02:55:41.973Z,2.18
2023-04-04T02:58:18.777Z,2.16
2023-04-04T03:00:46.896Z,2.13
2023-04-04T03:06:10.331Z,2.10
2023-04-04T03:08:39.227Z,2.07
2023-04-04T03:11:06.274Z,2.03
2023-04-04T03:13:37.112Z,2.03
2023-04-04T03:16:08.073Z,2.01
2023-04-04T03:18:48.514Z,1.97
2023-04-04T03:21:19.786Z,1.94
2023-04-04T03:23:49.496Z,1.94
2023-04-04T03:26:24.940Z,1.95
2023-04-04T03:28:55.776Z,1.93
2023-04-04T03:31:24.747Z,1.89
2023-04-04T03:33:53.514Z,1.86
2023-04-04T03:36:25.727Z,1.90
2023-04-04T03:38:56.298Z,1.93
2023-04-04T03:41:24.164Z,1.92
2023-04-04T03:43:52.607Z,1.90
2023-04-04T03:46:22.421Z,1.88
2023-04-04T03:48:50.390Z,1.91
2023-04-04T03:51:26.276Z,1.98
2023-04-04T03:53:53.819Z,2.02
2023-04-04T03:56:21.373Z,1.99
2023-04-04T03:58:48.692Z,1.98
2023-04-04T04:01:20.854Z,1.98
2023-04-04T04:03:49.818Z,2.00
2023-04-04T04:06:17.921Z,2.02
2023-04-04T04:08:53.412Z,1.98
2023-04-04T04:11:20.720Z,1.91
2023-04-04T04:13:48.557Z,1.89
2023-04-04T04:16:15.816Z,1.95
2023-04-04T04:18:45.352Z,2.01
2023-04-04T04:21:15.099Z,2.02
2023-04-04T04:23:49.438Z,2.00
2023-04-04T04:26:18.106Z,2.00
2023-04-04T04:28:45.497Z,2.04
2023-04-04T04:31:15.145Z,2.07
2023-04-04T04:33:54.650Z,2.08
2023-04-04T04:36:38.071Z,2.05
2023-04-04T04:39:16.761Z,2.05
2023-04-04T04:41:54.700Z,2.09
2023-04-04T04:44:27.785Z,2.14
2023-04-04T04:46:55.844Z,2.18
2023-04-04T04:49:32.443Z,2.13
2023-04-04T04:52:10.742Z,2.14
2023-04-04T04:54:40.768Z,2.19
2023-04-04T04:57:08.124Z,2.22
2023-04-04T04:59:37.727Z,2.24
2023-04-04T05:02:08.218Z,2.24
2023-04-04T05:04:41.686Z,2.26
2023-04-04T05:07:11.898Z,2.29
2023-04-04T05:09:39.865Z,2.30
2023-04-04T05:12:10.601Z,2.28
2023-04-04T05:14:46.628Z,2.22
2023-04-04T05:17:19.676Z,2.21
2023-04-04T05:19:48.446Z,2.23
2023-04-04T05:22:19.017Z,2.22
2023-04-04T05:24:56.557Z,2.20
2023-04-04T05:27:26.574Z,2.19
2023-04-04T05:30:07.553Z,2.21
2023-04-04T05:32:52.474Z,2.24
2023-04-04T05:35:25.567Z,2.21
2023-04-04T05:37:57.587Z,2.12
2023-04-04T05:40:27.833Z,2.08
2023-04-04T05:43:06.065Z,2.10
2023-04-04T05:45:41.962Z,2.04
2023-04-04T05:48:15.264Z,2.02
2023-04-04T05:50:48.724Z,2.05
2023-04-04T05:53:18.522Z,2.08
2023-04-04T05:55:51.252Z,2.11
2023-04-04T05:58:25.071Z,2.11
2023-04-04T06:00:57.308Z,2.06
2023-04-04T06:03:25.370Z,2.05
2023-04-04T06:05:52.573Z,2.04
2023-04-04T06:08:27.029Z,2.03
2023-04-04T06:10:55.494Z,2.01
2023-04-04T06:13:31.959Z,2.04
2023-04-04T06:16:06.220Z,2.10
2023-04-04T06:18:33.113Z,2.14
2023-04-04T06:21:04.275Z,2.15
2023-04-04T06:23:31.841Z,2.12
2023-04-04T06:26:10.056Z,2.13
2023-04-04T06:28:51.193Z,2.22
2023-04-04T06:31:29.802Z,2.31
2023-04-04T06:34:01.704Z,2.34
2023-04-04T06:36:34.182Z,2.35
2023-04-04T06:39:06.388Z,2.38
2023-04-04T06:41:34.398Z,2.44
2023-04-04T06:44:01.855Z,2.50
2023-04-04T06:46:32.673Z,2.50
2023-04-04T06:49:06.557Z,2.49
2023-04-04T06:51:36.060Z,2.53
2023-04-04T06:54:11.682Z,2.63
2023-04-04T06:56:39.885Z,2.73
2023-04-04T06:59:17.700Z,2.76
2023-04-04T07:01:45.204Z,2.79
2023-04-04T07:04:12.877Z,2.81
2023-04-04T07:06:39.608Z,2.85
2023-04-04T07:09:15.451Z,2.91
2023-04-04T07:11:48.855Z,2.97
2023-04-04T07:14:32.436Z,2.98
2023-04-04T07:17:00.868Z,2.95
2023-04-04T07:19:29.580Z,2.94
2023-04-04T07:21:57.808Z,2.96
2023-04-04T07:24:28.839Z,3.02
2023-04-04T07:26:58.405Z,3.08
2023-04-04T07:29:25.639Z,3.10
2023-04-04T07:31:52.747Z,3.13
2023-04-04T07:34:25.524Z,3.21
2023-04-04T07:36:54.183Z,3.25
2023-04-04T07:39:23.173Z,3.23
2023-04-04T07:41:59.644Z,3.18
2023-04-04T07:44:28.056Z,3.18
2023-04-04T07:47:06.282Z,3.22
2023-04-04T07:49:37.407Z,3.22
2023-04-04T07:52:04.525Z,3.21
2023-04-04T07:54:31.722Z,3.16
2023-04-04T07:57:01.252Z,3.16
2023-04-04T07:59:29.206Z,3.19
2023-04-04T08:01:56.453Z,3.20
2023-04-04T08:04:23.683Z,3.19
2023-04-04T08:06:55.586Z,3.18
2023-04-04T08:09:25.614Z,3.19
2023-04-04T08:11:53.074Z,3.29
2023-04-04T08:14:24.144Z,3.42
2023-04-04T08:16:58.612Z,3.50
2023-04-04T08:19:25.528Z,3.52
2023-04-04T08:21:53.257Z,3.50
2023-04-04T08:24:21.885Z,3.53
2023-04-04T08:26:54.898Z,3.54
2023-04-04T08:29:34.148Z,3.54
2023-04-04T08:32:01.282Z,3.45
2023-04-04T08:34:30.327Z,3.43
2023-04-04T08:36:57.460Z,3.46
2023-04-04T08:39:31.438Z,3.47
2023-04-04T08:42:06.017Z,3.59
2023-04-04T08:44:37.917Z,3.72
2023-04-04T08:47:05.353Z,3.81
2023-04-04T08:49:37.363Z,3.91
2023-04-04T08:52:05.883Z,4.00
2023-04-04T08:54:36.894Z,4.09
2023-04-04T08:57:04.922Z,4.21
2023-04-04T08:59:39.774Z,4.25
2023-04-04T09:02:12.253Z,4.25
2023-04-04T09:04:39.382Z,4.22
2023-04-04T09:07:06.532Z,4.23
2023-04-04T09:09:35.956Z,4.30
2023-04-04T09:12:03.097Z,4.36
2023-04-04T09:14:32.080Z,4.46
2023-04-04T09:17:00.387Z,4.57
2023-04-04T09:19:27.307Z,4.62
2023-04-04T09:22:02.954Z,4.66
2023-04-04T09:24:40.242Z,4.75
2023-04-04T09:27:12.716Z,4.76
2023-04-04T09:29:44.371Z,4.75
2023-04-04T09:32:15.762Z,4.76
2023-04-04T09:34:51.296Z,4.85
2023-04-04T09:37:18.239Z,4.98
2023-04-04T09:39:55.295Z,5.09
2023-04-04T09:42:22.113Z,5.18
2023-04-04T09:45:01.169Z,5.27
2023-04-04T09:47:31.755Z,5.38
2023-04-04T09:50:03.962Z,5.44
2023-04-04T09:52:33.103Z,5.42
2023-04-04T09:55:03.592Z,5.46
2023-04-04T09:57:37.626Z,5.55
2023-04-04T10:00:08.667Z,5.68
2023-04-04T10:02:46.769Z,5.84
2023-04-04T10:08:15.391Z,6.01
2023-04-04T10:11:09.797Z,6.03
2023-04-04T10:13:44.201Z,6.07
2023-04-04T10:16:11.659Z,6.16
2023-04-04T10:18:42.963Z,6.24
2023-04-04T10:21:15.162Z,6.31
2023-04-04T10:23:47.314Z,6.30
2023-04-04T10:26:17.352Z,6.33
2023-04-04T10:28:45.090Z,6.36
2023-04-04T10:31:19.242Z,6.39
2023-04-04T10:34:02.939Z,6.48
2023-04-04T10:36:32.439Z,6.46
2023-04-04T10:39:15.469Z,6.40
2023-04-04T10:41:42.613Z,6.39
2023-04-04T10:44:18.468Z,6.36
2023-04-04T10:46:47.152Z,6.34
2023-04-04T10:49:14.817Z,6.34
2023-04-04T10:51:55.139Z,6.32
2023-04-04T10:54:22.947Z,6.26
2023-04-04T10:56:50.400Z,6.21
2023-04-04T10:59:17.779Z,6.18
2023-04-04T11:01:53.197Z,6.14
2023-04-04T11:04:21.619Z,6.13
2023-04-04T11:07:21.496Z,6.12
2023-04-04T11:09:55.975Z,6.05
2023-04-04T11:12:27.470Z,6.00
2023-04-04T11:15:09.791Z,6.03
2023-04-04T11:17:48.609Z,6.16
2023-04-04T11:20:17.198Z,6.30
2023-04-04T11:22:45.281Z,6.38
2023-04-04T11:25:27.949Z,6.40
2023-04-04T11:27:56.050Z,6.49
2023-04-04T11:30:24.596Z,6.63
2023-04-04T11:33:04.226Z,6.67
2023-04-04T11:35:38.850Z,6.73
2023-04-04T11:38:14.306Z,6.73
2023-04-04T11:40:42.461Z,6.74
2023-04-04T11:43:16.602Z,6.79
2023-04-04T11:45:44.173Z,6.89
2023-04-04T11:48:20.636Z,6.92
2023-04-04T11:50:50.860Z,6.90
2023-04-04T11:53:18.832Z,6.82
2023-04-04T11:55:49.856Z,6.78
2023-04-04T11:58:18.187Z,6.83
2023-04-04T12:00:47.287Z,6.86
2023-04-04T12:03:16.935Z,6.84
2023-04-04T12:05:48.198Z,6.88
2023-04-04T12:08:18.501Z,6.92
2023-04-04T12:10:47.162Z,6.87
2023-04-04T12:13:15.102Z,6.81
2023-04-04T12:15:44.542Z,6.75
2023-04-04T12:18:19.649Z,6.72
2023-04-04T12:20:50.683Z,6.65
2023-04-04T12:23:20.569Z,6.57
2023-04-04T12:25:52.982Z,6.49
2023-04-04T12:28:23.745Z,6.38
2023-04-04T12:30:51.116Z,6.31
2023-04-04T12:33:18.693Z,6.32
2023-04-04T12:35:52.879Z,6.36
2023-04-04T12:39:07.067Z,6.38
2023-04-04T12:42:08.790Z,6.37
2023-04-04T12:44:38.153Z,6.40
2023-04-04T12:47:10.853Z,6.42
2023-04-04T12:49:39.454Z,6.43
2023-04-04T12:52:09.521Z,6.42
2023-04-04T12:54:40.232Z,6.38
2023-04-04T12:57:12.656Z,6.30
2023-04-04T12:59:41.442Z,6.21
2023-04-04T13:02:15.017Z,6.18
2023-04-04T13:04:47.665Z,6.19
2023-04-04T13:07:26.056Z,6.22
2023-04-04T13:09:55.569Z,6.26
2023-04-04T13:13:00.360Z,6.31
2023-04-04T13:15:48.593Z,6.39
2023-04-04T13:18:22.509Z,6.48
2023-04-04T13:20:51.780Z,6.56
2023-04-04T13:23:21.000Z,6.62
2023-04-04T13:25:50.966Z,6.62
2023-04-04T13:28:19.505Z,6.61
2023-04-04T13:30:51.165Z,6.61
2023-04-04T13:33:22.640Z,6.64
2023-04-04T13:35:51.565Z,6.67
2023-04-04T13:38:20.563Z,6.71
2023-04-04T13:40:49.157Z,6.71
2023-04-04T13:43:26.870Z,6.70
2023-04-04T13:45:59.141Z,6.72
2023-04-04T13:48:27.416Z,6.77
2023-04-04T13:50:56.194Z,6.79
2023-04-04T13:53:24.649Z,6.78
2023-04-04T13:56:16.771Z,6.78
2023-04-04T13:58:46.644Z,6.77
2023-04-04T14:01:14.909Z,6.77
2023-04-04T14:03:44.661Z,6.76
2023-04-04T14:06:13.095Z,6.75
2023-04-04T14:08:41.378Z,6.68
2023-04-04T14:11:11.904Z,6.61
2023-04-04T14:13:40.386Z,6.62
2023-04-04T14:16:09.322Z,6.66
2023-04-04T14:18:37.757Z,6.67
2023-04-04T14:21:06.344Z,6.64
2023-04-04T14:23:34.536Z,6.58
2023-04-04T14:26:05.453Z,6.50
2023-04-04T14:28:38.852Z,6.48
2023-04-04T14:31:07.356Z,6.46
2023-04-04T14:33:35.819Z,6.39
2023-04-04T14:36:04.498Z,6.30
2023-04-04T14:38:32.776Z,6.19
2023-04-04T14:41:02.121Z,6.11
2023-04-04T14:43:30.355Z,6.07
2023-04-04T14:45:59.890Z,6.04
2023-04-04T14:48:28.239Z,5.99
2023-04-04T14:50:56.412Z,5.94
2023-04-04T14:53:27.867Z,5.90
2023-04-04T14:55:57.023Z,5.87
2023-04-04T14:58:25.958Z,5.85
2023-04-04T15:00:54.648Z,5.81
2023-04-04T15:03:26.225Z,5.76
2023-04-04T15:05:57.972Z,5.72
2023-04-04T15:08:29.202Z,5.72
2023-04-04T15:10:59.632Z,5.76
2023-04-04T15:13:33.538Z,5.76
2023-04-04T15:16:02.155Z,5.75
2023-04-04T15:18:30.631Z,5.73
2023-04-04T15:21:00.837Z,5.71
2023-04-04T15:23:29.713Z,5.73
2023-04-04T15:26:00.248Z,5.79
2023-04-04T15:28:28.930Z,5.82
2023-04-04T15:31:00.636Z,5.82
2023-04-04T15:33:28.861Z,5.79
2023-04-04T15:35:57.140Z,5.74
2023-04-04T15:38:25.824Z,5.72
2023-04-04T15:40:56.458Z,5.74
2023-04-04T15:43:24.894Z,5.72
2023-04-04T15:45:56.297Z,5.68
2023-04-04T15:48:28.765Z,5.61
2023-04-04T15:51:01.042Z,5.54
2023-04-04T15:53:31.172Z,5.48
2023-04-04T15:56:05.776Z,5.46
2023-04-04T15:58:34.362Z,5.46
2023-04-04T16:01:15.798Z,5.44
2023-04-04T16:03:45.857Z,5.43
2023-04-04T16:06:15.377Z,5.38
2023-04-04T16:08:48.769Z,5.32
2023-04-04T16:11:21.250Z,5.30
2023-04-04T16:13:50.139Z,5.30
2023-04-04T16:16:25.998Z,5.31
2023-04-04T16:18:56.109Z,5.29
2023-04-04T16:24:21.130Z,5.16
2023-04-04T16:26:50.433Z,5.12
2023-04-04T16:29:19.228Z,5.13
2023-04-04T16:32:01.325Z,5.13
2023-04-04T16:34:30.422Z,5.11
2023-04-04T16:37:24.092Z,5.08
2023-04-04T16:39:52.987Z,5.08
2023-04-04T16:42:29.458Z,5.11
2023-04-04T16:44:57.728Z,5.13
2023-04-04T16:47:27.643Z,5.12
2023-04-04T16:49:59.121Z,5.08
2023-04-04T16:52:27.581Z,5.06
2023-04-04T16:55:06.551Z,5.06
2023-04-04T16:57:42.897Z,5.06
2023-04-04T17:00:11.980Z,5.03
2023-04-04T17:02:50.342Z,5.00
2023-04-04T17:05:18.864Z,4.99
2023-04-04T17:07:47.140Z,5.00
2023-04-04T17:10:15.723Z,5.00
2023-04-04T17:12:48.504Z,4.97
2023-04-04T17:15:17.898Z,4.95
2023-04-04T17:17:49.681Z,4.92
2023-04-04T17:20:30.198Z,4.92
2023-04-04T17:23:00.151Z,4.92
2023-04-04T17:25:33.544Z,4.94
2023-04-04T17:28:04.480Z,4.93
2023-04-04T17:30:32.605Z,4.90
2023-04-04T17:33:08.333Z,4.90
2023-04-04T17:35:44.632Z,4.93
2023-04-04T17:38:17.460Z,4.93
2023-04-04T17:40:46.346Z,4.91
2023-04-04T17:43:14.523Z,4.87
2023-04-04T17:45:44.388Z,4.85
2023-04-04T17:48:21.119Z,4.86
2023-04-04T17:50:50.618Z,4.86
2023-04-04T17:53:26.576Z,4.80
2023-04-04T17:55:54.853Z,4.75
2023-04-04T17:58:23.188Z,4.74
2023-04-04T18:00:56.115Z,4.77
2023-04-04T18:03:25.576Z,4.78
2023-04-04T18:05:54.319Z,4.75
2023-04-04T18:08:22.902Z,4.71
2023-04-04T18:10:52.094Z,4.68
2023-04-04T18:13:23.237Z,4.68
2023-04-04T18:15:53.556Z,4.67
2023-04-04T18:18:22.961Z,4.63
2023-04-04T18:20:54.671Z,4.57
2023-04-04T18:23:24.460Z,4.55
2023-04-04T18:25:52.709Z,4.55
2023-04-04T18:28:21.703Z,4.54
2023-04-04T18:30:50.182Z,4.49
2023-04-04T18:33:20.096Z,4.45
2023-04-04T18:35:50.753Z,4.44
2023-04-04T18:38:19.525Z,4.47
2023-04-04T18:40:53.227Z,4.47
2023-04-04T18:43:22.157Z,4.45
2023-04-04T18:45:50.907Z,4.40
2023-04-04T18:48:19.490Z,4.39
2023-04-04T18:50:47.674Z,4.41
2023-04-04T18:53:16.655Z,4.41
2023-04-04T18:55:46.466Z,4.38
2023-04-04T18:58:16.089Z,4.34
2023-04-04T19:00:44.830Z,4.30
2023-04-04T19:03:15.457Z,4.33
2023-04-04T19:05:47.532Z,4.35
2023-04-04T19:08:16.670Z,4.34
2023-04-04T19:10:47.492Z,4.32
2023-04-04T19:13:19.970Z,4.31
2023-04-04T19:15:49.893Z,4.34
2023-04-04T19:18:25.334Z,4.36
2023-04-04T19:20:54.224Z,4.32
2023-04-04T19:23:22.605Z,4.29
2023-04-04T19:25:51.289Z,4.32
2023-04-04T19:28:19.772Z,4.35
2023-04-04T19:30:49.308Z,4.37
2023-04-04T19:33:20.326Z,4.34
2023-04-04T19:35:54.811Z,4.29
2023-04-04T19:38:37.552Z,4.27
2023-04-04T19:41:23.043Z,4.28
2023-04-04T19:43:51.316Z,4.31
2023-04-04T19:46:22.989Z,4.31
2023-04-04T19:48:55.856Z,4.26
2023-04-04T19:51:24.131Z,4.22
2023-04-04T19:54:00.915Z,4.22
2023-04-04T19:56:29.489Z,4.21
2023-04-04T19:59:08.116Z,4.20
2023-04-04T20:01:44.883Z,4.22
2023-04-04T20:04:18.834Z,4.24
2023-04-04T20:06:49.226Z,4.27
2023-04-04T20:09:43.869Z,4.29
2023-04-04T20:12:12.445Z,4.29
2023-04-04T20:14:41.595Z,4.28
2023-04-04T20:17:10.077Z,4.29
2023-04-04T20:19:38.664Z,4.25
2023-04-04T20:22:07.960Z,4.19
2023-04-04T20:24:36.750Z,4.14
2023-04-04T20:27:05.100Z,4.12
2023-04-04T20:29:36.374Z,4.11
2023-04-04T20:32:07.993Z,4.11
2023-04-04T20:34:40.915Z,4.11
2023-04-04T20:37:26.523Z,4.06
2023-04-04T20:39:58.746Z,3.96
2023-04-04T20:42:29.908Z,3.91
2023-04-04T20:45:21.284Z,3.87
2023-04-04T20:48:01.080Z,3.87
2023-04-04T20:50:35.004Z,3.87
2023-04-04T20:53:05.005Z,3.82
2023-04-04T20:55:44.345Z,3.74
2023-04-04T20:58:33.507Z,3.69
2023-04-04T21:01:04.503Z,3.69
2023-04-04T21:03:48.703Z,3.69
2023-04-04T21:06:20.158Z,3.68
2023-04-04T21:08:53.909Z,3.66
2023-04-04T21:11:29.149Z,3.65
2023-04-04T21:13:57.724Z,3.63
2023-04-04T21:16:30.579Z,3.61
2023-04-04T21:19:03.670Z,3.58
